Aviation Digital Data Service (ADDS)

Output produced by METARs form (1158 UTC 26 March 2019)
found at http://www.aviationweather.gov/metar/data/
 
METAR text: KHOU 261153Z 05010KT 10SM FEW250 15/09 A3024 RMK AO2 SLP245 T01500089 10200 20150 52019
Conditions at: KHOU (HOUSTON/HOBBY , TX, US) observed 1153 UTC 26 March 2019
Temperature: 15.0°C (59°F)
Dewpoint: 8.9°C (48°F) [RH = 67%]
Pressure (altimeter): 30.24 inches Hg (1024.1 mb)
[Sea-level pressure: 1024.5 mb]
Winds: from the NE (50 degrees) at 12 MPH (10 knots; 5.1 m/s)
Visibility: 10 or more miles (16+ km)
Ceiling: at least 12,000 feet AGL
Clouds: few clouds at 25000 feet AGL
Weather: no significant weather observed at this time

METAR text: KHOU 261053Z 05008KT 10SM FEW250 16/09 A3022 RMK AO2 SLP239 T01560089
Conditions at: KHOU (HOUSTON/HOBBY , TX, US) observed 1053 UTC 26 March 2019
Temperature: 15.6°C (60°F)
Dewpoint: 8.9°C (48°F) [RH = 64%]
Pressure (altimeter): 30.22 inches Hg (1023.5 mb)
[Sea-level pressure: 1023.9 mb]
Winds: from the NE (50 degrees) at 9 MPH (8 knots; 4.1 m/s)
Visibility: 10 or more miles (16+ km)
Ceiling: at least 12,000 feet AGL
Clouds: few clouds at 25000 feet AGL
Weather: no significant weather observed at this time

METAR text: KHOU 260953Z 04012KT 10SM FEW250 17/09 A3020 RMK AO2 SLP232 T01670089
Conditions at: KHOU (HOUSTON/HOBBY , TX, US) observed 0953 UTC 26 March 2019
Temperature: 16.7°C (62°F)
Dewpoint: 8.9°C (48°F) [RH = 60%]
Pressure (altimeter): 30.20 inches Hg (1022.8 mb)
[Sea-level pressure: 1023.2 mb]
Winds: from the NE (40 degrees) at 14 MPH (12 knots; 6.2 m/s)
Visibility: 10 or more miles (16+ km)
Ceiling: at least 12,000 feet AGL
Clouds: few clouds at 25000 feet AGL
Weather: no significant weather observed at this time

METAR text: KHOU 260853Z 04013G18KT 10SM CLR 18/09 A3018 RMK AO2 SLP226 T01780089 51007
Conditions at: KHOU (HOUSTON/HOBBY , TX, US) observed 0853 UTC 26 March 2019
Temperature: 17.8°C (64°F)
Dewpoint: 8.9°C (48°F) [RH = 56%]
Pressure (altimeter): 30.18 inches Hg (1022.1 mb)
[Sea-level pressure: 1022.6 mb]
Winds: from the NE (40 degrees) at 15 MPH (13 knots; 6.7 m/s)
gusting to 21 MPH (18 knots; 9.3 m/s)
Visibility: 10 or more miles (16+ km)
Ceiling: at least 12,000 feet AGL
Clouds: sky clear below 12,000 feet AGL
Weather: no significant weather observed at this time

METAR text: KHOU 260753Z 02012KT 10SM CLR 18/09 A3018 RMK AO2 SLP225 T01830089
Conditions at: KHOU (HOUSTON/HOBBY , TX, US) observed 0753 UTC 26 March 2019
Temperature: 18.3°C (65°F)
Dewpoint: 8.9°C (48°F) [RH = 54%]
Pressure (altimeter): 30.18 inches Hg (1022.1 mb)
[Sea-level pressure: 1022.5 mb]
Winds: from the NNE (20 degrees) at 14 MPH (12 knots; 6.2 m/s)
Visibility: 10 or more miles (16+ km)
Ceiling: at least 12,000 feet AGL
Clouds: sky clear below 12,000 feet AGL
Weather: no significant weather observed at this time

METAR text: KHOU 260653Z 01008KT 10SM CLR 18/11 A3018 RMK AO2 SLP224 T01830106
Conditions at: KHOU (HOUSTON/HOBBY , TX, US) observed 0653 UTC 26 March 2019
Temperature: 18.3°C (65°F)
Dewpoint: 10.6°C (51°F) [RH = 61%]
Pressure (altimeter): 30.18 inches Hg (1022.1 mb)
[Sea-level pressure: 1022.4 mb]
Winds: from the N (10 degrees) at 9 MPH (8 knots; 4.1 m/s)
Visibility: 10 or more miles (16+ km)
Ceiling: at least 12,000 feet AGL
Clouds: sky clear below 12,000 feet AGL
Weather: no significant weather observed at this time

METAR text: KHOU 260553Z 36005KT 10SM FEW025 FEW035 19/18 A3016 RMK AO2 SLP219 T01940178 10278 20194 402940189 50008
Conditions at: KHOU (HOUSTON/HOBBY , TX, US) observed 0553 UTC 26 March 2019
Temperature: 19.4°C (67°F)
Dewpoint: 17.8°C (64°F) [RH = 90%]
Pressure (altimeter): 30.16 inches Hg (1021.4 mb)
[Sea-level pressure: 1021.9 mb]
Winds: from the N (360 degrees) at 6 MPH (5 knots; 2.6 m/s)
Visibility: 10 or more miles (16+ km)
Ceiling: at least 12,000 feet AGL
Clouds: few clouds at 2500 feet AGL
few clouds at 3500 feet AGL
Weather: no significant weather observed at this time

METAR text: KHOU 260453Z 00000KT 10SM FEW020 FEW250 21/18 A3017 RMK AO2 SLP220 T02060178
Conditions at: KHOU (HOUSTON/HOBBY , TX, US) observed 0453 UTC 26 March 2019
Temperature: 20.6°C (69°F)
Dewpoint: 17.8°C (64°F) [RH = 84%]
Pressure (altimeter): 30.17 inches Hg (1021.8 mb)
[Sea-level pressure: 1022.0 mb]
Winds: calm
Visibility: 10 or more miles (16+ km)
Ceiling: at least 12,000 feet AGL
Clouds: few clouds at 2000 feet AGL
few clouds at 25000 feet AGL
Weather: no significant weather observed at this time

METAR text: KHOU 260353Z 07004KT 10SM FEW020 FEW040 SCT250 22/18 A3016 RMK AO2 SLP219 T02170183
Conditions at: KHOU (HOUSTON/HOBBY , TX, US) observed 0353 UTC 26 March 2019
Temperature: 21.7°C (71°F)
Dewpoint: 18.3°C (65°F) [RH = 81%]
Pressure (altimeter): 30.16 inches Hg (1021.4 mb)
[Sea-level pressure: 1021.9 mb]
Winds: from the ENE (70 degrees) at 5 MPH (4 knots; 2.1 m/s)
Visibility: 10 or more miles (16+ km)
Ceiling: at least 12,000 feet AGL
Clouds: few clouds at 2000 feet AGL
few clouds at 4000 feet AGL
scattered clouds at 25000 feet AGL
Weather: no significant weather observed at this time

METAR text: KHOU 260253Z 10007KT 10SM BKN060 BKN250 23/19 A3014 RMK AO2 SLP211 T02280194 53032
Conditions at: KHOU (HOUSTON/HOBBY , TX, US) observed 0253 UTC 26 March 2019
Temperature: 22.8°C (73°F)
Dewpoint: 19.4°C (67°F) [RH = 81%]
Pressure (altimeter): 30.14 inches Hg (1020.7 mb)
[Sea-level pressure: 1021.1 mb]
Winds: from the E (100 degrees) at 8 MPH (7 knots; 3.6 m/s)
Visibility: 10 or more miles (16+ km)
Ceiling: 6000 feet AGL
Clouds: broken clouds at 6000 feet AGL
broken clouds at 25000 feet AGL
Weather: no significant weather observed at this time

METAR text: KHOU 260153Z 02012KT 10SM FEW045 SCT090 SCT250 25/11 A3010 RMK AO2 LTG DSNT S SLP196 LTGICCC DSNT S CB DSNT S T02500111
Conditions at: KHOU (HOUSTON/HOBBY , TX, US) observed 0153 UTC 26 March 2019
Temperature: 25.0°C (77°F)
Dewpoint: 11.1°C (52°F) [RH = 42%]
Pressure (altimeter): 30.10 inches Hg (1019.4 mb)
[Sea-level pressure: 1019.6 mb]
Winds: from the NNE (20 degrees) at 14 MPH (12 knots; 6.2 m/s)
Visibility: 10 or more miles (16+ km)
Ceiling: at least 12,000 feet AGL
Clouds: few clouds at 4500 feet AGL
scattered clouds at 9000 feet AGL
scattered clouds at 25000 feet AGL
Weather: no significant weather observed at this time

METAR text: KHOU 260053Z 02014KT 10SM SCT050 SCT090 BKN250 26/15 A3007 RMK AO2 LTG DSNT SE SLP188 T02610150
Conditions at: KHOU (HOUSTON/HOBBY , TX, US) observed 0053 UTC 26 March 2019
Temperature: 26.1°C (79°F)
Dewpoint: 15.0°C (59°F) [RH = 50%]
Pressure (altimeter): 30.07 inches Hg (1018.4 mb)
[Sea-level pressure: 1018.8 mb]
Winds: from the NNE (20 degrees) at 16 MPH (14 knots; 7.2 m/s)
Visibility: 10 or more miles (16+ km)
Ceiling: 25000 feet AGL
Clouds: scattered clouds at 5000 feet AGL
scattered clouds at 9000 feet AGL
broken clouds at 25000 feet AGL
Weather: no significant weather observed at this time

METAR text: KHOU 252353Z 35010KT 10SM SCT055 28/17 A3005 RMK AO2 LTG DSNT E SLP179 T02780167 10294 20244 53001
Conditions at: KHOU (HOUSTON/HOBBY , TX, US) observed 2353 UTC 25 March 2019
Temperature: 27.8°C (82°F)
Dewpoint: 16.7°C (62°F) [RH = 51%]
Pressure (altimeter): 30.05 inches Hg (1017.7 mb)
[Sea-level pressure: 1017.9 mb]
Winds: from the N (350 degrees) at 12 MPH (10 knots; 5.1 m/s)
Visibility: 10 or more miles (16+ km)
Ceiling: at least 12,000 feet AGL
Clouds: scattered clouds at 5500 feet AGL
Weather: no significant weather observed at this time

METAR text: KHOU 252253Z 24007KT 10SM SCT050 29/16 A3002 RMK AO2 SLP172 T02940161
Conditions at: KHOU (HOUSTON/HOBBY , TX, US) observed 2253 UTC 25 March 2019
Temperature: 29.4°C (85°F)
Dewpoint: 16.1°C (61°F) [RH = 45%]
Pressure (altimeter): 30.02 inches Hg (1016.7 mb)
[Sea-level pressure: 1017.2 mb]
Winds: from the WSW (240 degrees) at 8 MPH (7 knots; 3.6 m/s)
Visibility: 10 or more miles (16+ km)
Ceiling: at least 12,000 feet AGL
Clouds: scattered clouds at 5000 feet AGL
Weather: no significant weather observed at this time

METAR text: KHOU 252153Z 25007KT 10SM SCT040 29/17 A3003 RMK AO2 SLP174 T02890172
Conditions at: KHOU (HOUSTON/HOBBY , TX, US) observed 2153 UTC 25 March 2019
Temperature: 28.9°C (84°F)
Dewpoint: 17.2°C (63°F) [RH = 49%]
Pressure (altimeter): 30.03 inches Hg (1017.0 mb)
[Sea-level pressure: 1017.4 mb]
Winds: from the WSW (250 degrees) at 8 MPH (7 knots; 3.6 m/s)
Visibility: 10 or more miles (16+ km)
Ceiling: at least 12,000 feet AGL
Clouds: scattered clouds at 4000 feet AGL
Weather: no significant weather observed at this time

METAR text: KHOU 252053Z 31004KT 10SM BKN039 28/18 A3004 RMK AO2 SLP177 T02780178 58025
Conditions at: KHOU (HOUSTON/HOBBY , TX, US) observed 2053 UTC 25 March 2019
Temperature: 27.8°C (82°F)
Dewpoint: 17.8°C (64°F) [RH = 55%]
Pressure (altimeter): 30.04 inches Hg (1017.4 mb)
[Sea-level pressure: 1017.7 mb]
Winds: from the NW (310 degrees) at 5 MPH (4 knots; 2.1 m/s)
Visibility: 10 or more miles (16+ km)
Ceiling: 3900 feet AGL
Clouds: broken clouds at 3900 feet AGL
Weather: no significant weather observed at this time

METAR text: KHOU 251953Z 23006KT 10SM BKN038 27/18 A3007 RMK AO2 SLP186 T02720183
Conditions at: KHOU (HOUSTON/HOBBY , TX, US) observed 1953 UTC 25 March 2019
Temperature: 27.2°C (81°F)
Dewpoint: 18.3°C (65°F) [RH = 58%]
Pressure (altimeter): 30.07 inches Hg (1018.4 mb)
[Sea-level pressure: 1018.6 mb]
Winds: from the SW (230 degrees) at 7 MPH (6 knots; 3.1 m/s)
Visibility: 10 or more miles (16+ km)
Ceiling: 3800 feet AGL
Clouds: broken clouds at 3800 feet AGL
Weather: no significant weather observed at this time

METAR text: KHOU 251853Z 27007KT 10SM BKN039 BKN250 25/18 A3010 RMK AO2 SLP196 T02500178
Conditions at: KHOU (HOUSTON/HOBBY , TX, US) observed 1853 UTC 25 March 2019
Temperature: 25.0°C (77°F)
Dewpoint: 17.8°C (64°F) [RH = 64%]
Pressure (altimeter): 30.10 inches Hg (1019.4 mb)
[Sea-level pressure: 1019.6 mb]
Winds: from the W (270 degrees) at 8 MPH (7 knots; 3.6 m/s)
Visibility: 10 or more miles (16+ km)
Ceiling: 3900 feet AGL
Clouds: broken clouds at 3900 feet AGL
broken clouds at 25000 feet AGL
Weather: no significant weather observed at this time

METAR text: KHOU 251753Z 30007KT 10SM SCT026 BKN032 BKN250 24/18 A3012 RMK AO2 SLP203 T02440183 10250 20206 58004
Conditions at: KHOU (HOUSTON/HOBBY , TX, US) observed 1753 UTC 25 March 2019
Temperature: 24.4°C (76°F)
Dewpoint: 18.3°C (65°F) [RH = 69%]
Pressure (altimeter): 30.12 inches Hg (1020.1 mb)
[Sea-level pressure: 1020.3 mb]
Winds: from the WNW (300 degrees) at 8 MPH (7 knots; 3.6 m/s)
Visibility: 10 or more miles (16+ km)
Ceiling: 3200 feet AGL
Clouds: scattered clouds at 2600 feet AGL
broken clouds at 3200 feet AGL
broken clouds at 25000 feet AGL
Weather: no significant weather observed at this time

METAR text: KHOU 251653Z 24008KT 10SM FEW019 SCT029 BKN034 BKN250 24/19 A3012 RMK AO2 SLP203 T02390189
Conditions at: KHOU (HOUSTON/HOBBY , TX, US) observed 1653 UTC 25 March 2019
Temperature: 23.9°C (75°F)
Dewpoint: 18.9°C (66°F) [RH = 74%]
Pressure (altimeter): 30.12 inches Hg (1020.1 mb)
[Sea-level pressure: 1020.3 mb]
Winds: from the WSW (240 degrees) at 9 MPH (8 knots; 4.1 m/s)
Visibility: 10 or more miles (16+ km)
Ceiling: 3400 feet AGL
Clouds: few clouds at 1900 feet AGL
scattered clouds at 2900 feet AGL
broken clouds at 3400 feet AGL
broken clouds at 25000 feet AGL
Weather: no significant weather observed at this time

METAR text: KHOU 251553Z 32006KT 10SM SCT029 BKN050 BKN250 23/19 A3014 RMK AO2 SLP210 T02330189
Conditions at: KHOU (HOUSTON/HOBBY , TX, US) observed 1553 UTC 25 March 2019
Temperature: 23.3°C (74°F)
Dewpoint: 18.9°C (66°F) [RH = 76%]
Pressure (altimeter): 30.14 inches Hg (1020.7 mb)
[Sea-level pressure: 1021.0 mb]
Winds: from the NW (320 degrees) at 7 MPH (6 knots; 3.1 m/s)
Visibility: 10 or more miles (16+ km)
Ceiling: 5000 feet AGL
Clouds: scattered clouds at 2900 feet AGL
broken clouds at 5000 feet AGL
broken clouds at 25000 feet AGL
Weather: no significant weather observed at this time

METAR text: KHOU 251453Z 00000KT 8SM BKN026 OVC050 23/19 A3013 RMK AO2 SLP206 T02330189 53024
Conditions at: KHOU (HOUSTON/HOBBY , TX, US) observed 1453 UTC 25 March 2019
Temperature: 23.3°C (74°F)
Dewpoint: 18.9°C (66°F) [RH = 76%]
Pressure (altimeter): 30.13 inches Hg (1020.4 mb)
[Sea-level pressure: 1020.6 mb]
Winds: calm
Visibility: 8 miles (13 km)
Ceiling: 2600 feet AGL
Clouds: broken clouds at 2600 feet AGL
overcast cloud deck at 5000 feet AGL
Weather: no significant weather observed at this time

METAR text: KHOU 251353Z 00000KT 8SM BKN023 OVC027 21/19 A3010 RMK AO2 SLP198 T02110189
Conditions at: KHOU (HOUSTON/HOBBY , TX, US) observed 1353 UTC 25 March 2019
Temperature: 21.1°C (70°F)
Dewpoint: 18.9°C (66°F) [RH = 87%]
Pressure (altimeter): 30.10 inches Hg (1019.4 mb)
[Sea-level pressure: 1019.8 mb]
Winds: calm
Visibility: 8 miles (13 km)
Ceiling: 2300 feet AGL
Clouds: broken clouds at 2300 feet AGL
overcast cloud deck at 2700 feet AGL
Weather: no significant weather observed at this time

METAR text: KHOU 251337Z 00000KT 8SM SCT012 OVC021 21/18 A3010 RMK AO2 T02110183
Conditions at: KHOU (HOUSTON/HOBBY , TX, US) observed 1337 UTC 25 March 2019
Temperature: 21.1°C (70°F)
Dewpoint: 18.3°C (65°F) [RH = 84%]
Pressure (altimeter): 30.10 inches Hg (1019.4 mb)
Winds: calm
Visibility: 8 miles (13 km)
Ceiling: 2100 feet AGL
Clouds: scattered clouds at 1200 feet AGL
overcast cloud deck at 2100 feet AGL
Weather: no significant weather observed at this time

METAR text: KHOU 251318Z 00000KT 8SM BKN012 OVC019 21/19 A3009 RMK AO2 T02060189
Conditions at: KHOU (HOUSTON/HOBBY , TX, US) observed 1318 UTC 25 March 2019
Temperature: 20.6°C (69°F)
Dewpoint: 18.9°C (66°F) [RH = 90%]
Pressure (altimeter): 30.09 inches Hg (1019.0 mb)
Winds: calm
Visibility: 8 miles (13 km)
Ceiling: 1200 feet AGL
Clouds: broken clouds at 1200 feet AGL
overcast cloud deck at 1900 feet AGL
Weather: no significant weather observed at this time

METAR text: KHOU 251307Z 22004KT 8SM FEW009 OVC016 21/18 A3008 RMK AO2 T02060183
Conditions at: KHOU (HOUSTON/HOBBY , TX, US) observed 1307 UTC 25 March 2019
Temperature: 20.6°C (69°F)
Dewpoint: 18.3°C (65°F) [RH = 87%]
Pressure (altimeter): 30.08 inches Hg (1018.7 mb)
Winds: from the SW (220 degrees) at 5 MPH (4 knots; 2.1 m/s)
Visibility: 8 miles (13 km)
Ceiling: 1600 feet AGL
Clouds: few clouds at 900 feet AGL
overcast cloud deck at 1600 feet AGL
Weather: no significant weather observed at this time

METAR text: KHOU 251253Z 21005KT 8SM OVC014 21/18 A3008 RMK AO2 SLP190 T02060183
Conditions at: KHOU (HOUSTON/HOBBY , TX, US) observed 1253 UTC 25 March 2019
Temperature: 20.6°C (69°F)
Dewpoint: 18.3°C (65°F) [RH = 87%]
Pressure (altimeter): 30.08 inches Hg (1018.7 mb)
[Sea-level pressure: 1019.0 mb]
Winds: from the SSW (210 degrees) at 6 MPH (5 knots; 2.6 m/s)
Visibility: 8 miles (13 km)
Ceiling: 1400 feet AGL
Clouds: overcast cloud deck at 1400 feet AGL
Weather: no significant weather observed at this time

METAR text: KHOU 251216Z 25003KT 9SM OVC011 21/18 A3007 RMK AO2 T02060183
Conditions at: KHOU (HOUSTON/HOBBY , TX, US) observed 1216 UTC 25 March 2019
Temperature: 20.6°C (69°F)
Dewpoint: 18.3°C (65°F) [RH = 87%]
Pressure (altimeter): 30.07 inches Hg (1018.4 mb)
Winds: from the WSW (250 degrees) at 3 MPH (3 knots; 1.5 m/s)
Visibility: 9 miles (14 km)
Ceiling: 1100 feet AGL
Clouds: overcast cloud deck at 1100 feet AGL
Weather: no significant weather observed at this time

METAR text: KHOU 251153Z 23006KT 7SM BKN008 BKN012 21/18 A3005 RMK AO2 SLP182 T02060183 10206 20189 53008
Conditions at: KHOU (HOUSTON/HOBBY , TX, US) observed 1153 UTC 25 March 2019
Temperature: 20.6°C (69°F)
Dewpoint: 18.3°C (65°F) [RH = 87%]
Pressure (altimeter): 30.05 inches Hg (1017.7 mb)
[Sea-level pressure: 1018.2 mb]
Winds: from the SW (230 degrees) at 7 MPH (6 knots; 3.1 m/s)
Visibility: 7 miles (11 km)
Ceiling: 800 feet AGL
Clouds: broken clouds at 800 feet AGL
broken clouds at 1200 feet AGL
Weather: no significant weather observed at this time

METAR text: KHOU 251117Z 21008KT 7SM BKN008 BKN012 20/18 A3004 RMK AO2 T02000183
Conditions at: KHOU (HOUSTON/HOBBY , TX, US) observed 1117 UTC 25 March 2019
Temperature: 20.0°C (68°F)
Dewpoint: 18.3°C (65°F) [RH = 90%]
Pressure (altimeter): 30.04 inches Hg (1017.4 mb)
Winds: from the SSW (210 degrees) at 9 MPH (8 knots; 4.1 m/s)
Visibility: 7 miles (11 km)
Ceiling: 800 feet AGL
Clouds: broken clouds at 800 feet AGL
broken clouds at 1200 feet AGL
Weather: no significant weather observed at this time

METAR text: KHOU 251053Z 23004KT 7SM BKN004 OVC009 20/19 A3004 RMK AO2 SLP177 T02000189
Conditions at: KHOU (HOUSTON/HOBBY , TX, US) observed 1053 UTC 25 March 2019
Temperature: 20.0°C (68°F)
Dewpoint: 18.9°C (66°F) [RH = 93%]
Pressure (altimeter): 30.04 inches Hg (1017.4 mb)
[Sea-level pressure: 1017.7 mb]
Winds: from the SW (230 degrees) at 5 MPH (4 knots; 2.1 m/s)
Visibility: 7 miles (11 km)
Ceiling: 400 feet AGL
Clouds: broken clouds at 400 feet AGL
overcast cloud deck at 900 feet AGL
Weather: no significant weather observed at this time

METAR text: KHOU 250953Z 22007KT 6SM BR OVC004 20/19 A3003 RMK AO2 SLP174 T02000189
Conditions at: KHOU (HOUSTON/HOBBY , TX, US) observed 0953 UTC 25 March 2019
Temperature: 20.0°C (68°F)
Dewpoint: 18.9°C (66°F) [RH = 93%]
Pressure (altimeter): 30.03 inches Hg (1017.0 mb)
[Sea-level pressure: 1017.4 mb]
Winds: from the SW (220 degrees) at 8 MPH (7 knots; 3.6 m/s)
Visibility: 6 miles (10 km)
Ceiling: 400 feet AGL
Clouds: overcast cloud deck at 400 feet AGL
Weather: BR  (mist)

METAR text: KHOU 250905Z 20006KT 5SM BR OVC004 19/18 A3003 RMK AO2 T01940183
Conditions at: KHOU (HOUSTON/HOBBY , TX, US) observed 0905 UTC 25 March 2019
Temperature: 19.4°C (67°F)
Dewpoint: 18.3°C (65°F) [RH = 93%]
Pressure (altimeter): 30.03 inches Hg (1017.0 mb)
Winds: from the SSW (200 degrees) at 7 MPH (6 knots; 3.1 m/s)
Visibility: 5 miles ( 8 km)
Ceiling: 400 feet AGL
Clouds: overcast cloud deck at 400 feet AGL
Weather: BR  (mist)

METAR text: KHOU 250853Z 20006KT 5SM BR BKN005 BKN010 19/18 A3003 RMK AO2 SLP174 T01890183 58015
Conditions at: KHOU (HOUSTON/HOBBY , TX, US) observed 0853 UTC 25 March 2019
Temperature: 18.9°C (66°F)
Dewpoint: 18.3°C (65°F) [RH = 96%]
Pressure (altimeter): 30.03 inches Hg (1017.0 mb)
[Sea-level pressure: 1017.4 mb]
Winds: from the SSW (200 degrees) at 7 MPH (6 knots; 3.1 m/s)
Visibility: 5 miles ( 8 km)
Ceiling: 500 feet AGL
Clouds: broken clouds at 500 feet AGL
broken clouds at 1000 feet AGL
Weather: BR  (mist)

METAR text: KHOU 250831Z 22005KT 6SM BR BKN006 OVC010 19/18 A3004 RMK AO2 T01940183
Conditions at: KHOU (HOUSTON/HOBBY , TX, US) observed 0831 UTC 25 March 2019
Temperature: 19.4°C (67°F)
Dewpoint: 18.3°C (65°F) [RH = 93%]
Pressure (altimeter): 30.04 inches Hg (1017.4 mb)
Winds: from the SW (220 degrees) at 6 MPH (5 knots; 2.6 m/s)
Visibility: 6 miles (10 km)
Ceiling: 600 feet AGL
Clouds: broken clouds at 600 feet AGL
overcast cloud deck at 1000 feet AGL
Weather: BR  (mist)

METAR text: KHOU 250808Z 21006KT 6SM BR BKN011 OVC018 19/18 A3005 RMK AO2 T01940183
Conditions at: KHOU (HOUSTON/HOBBY , TX, US) observed 0808 UTC 25 March 2019
Temperature: 19.4°C (67°F)
Dewpoint: 18.3°C (65°F) [RH = 93%]
Pressure (altimeter): 30.05 inches Hg (1017.7 mb)
Winds: from the SSW (210 degrees) at 7 MPH (6 knots; 3.1 m/s)
Visibility: 6 miles (10 km)
Ceiling: 1100 feet AGL
Clouds: broken clouds at 1100 feet AGL
overcast cloud deck at 1800 feet AGL
Weather: BR  (mist)

METAR text: KHOU 250753Z 20004KT 6SM BR BKN016 BKN044 19/18 A3006 RMK AO2 SLP182 T01940183
Conditions at: KHOU (HOUSTON/HOBBY , TX, US) observed 0753 UTC 25 March 2019
Temperature: 19.4°C (67°F)
Dewpoint: 18.3°C (65°F) [RH = 93%]
Pressure (altimeter): 30.06 inches Hg (1018.0 mb)
[Sea-level pressure: 1018.2 mb]
Winds: from the SSW (200 degrees) at 5 MPH (4 knots; 2.1 m/s)
Visibility: 6 miles (10 km)
Ceiling: 1600 feet AGL
Clouds: broken clouds at 1600 feet AGL
broken clouds at 4400 feet AGL
Weather: BR  (mist)

METAR text: KHOU 250653Z 18006KT 8SM FEW012 OVC042 19/18 A3007 RMK AO2 SLP187 T01940183
Conditions at: KHOU (HOUSTON/HOBBY , TX, US) observed 0653 UTC 25 March 2019
Temperature: 19.4°C (67°F)
Dewpoint: 18.3°C (65°F) [RH = 93%]
Pressure (altimeter): 30.07 inches Hg (1018.4 mb)
[Sea-level pressure: 1018.7 mb]
Winds: from the S (180 degrees) at 7 MPH (6 knots; 3.1 m/s)
Visibility: 8 miles (13 km)
Ceiling: 4200 feet AGL
Clouds: few clouds at 1200 feet AGL
overcast cloud deck at 4200 feet AGL
Weather: no significant weather observed at this time

METAR text: KHOU 250553Z 16006KT 8SM FEW012 SCT046 BKN250 19/18 A3007 RMK AO2 SLP189 T01940178 10228 20194 402560150 51005
Conditions at: KHOU (HOUSTON/HOBBY , TX, US) observed 0553 UTC 25 March 2019
Temperature: 19.4°C (67°F)
Dewpoint: 17.8°C (64°F) [RH = 90%]
Pressure (altimeter): 30.07 inches Hg (1018.4 mb)
[Sea-level pressure: 1018.9 mb]
Winds: from the SSE (160 degrees) at 7 MPH (6 knots; 3.1 m/s)
Visibility: 8 miles (13 km)
Ceiling: 25000 feet AGL
Clouds: few clouds at 1200 feet AGL
scattered clouds at 4600 feet AGL
broken clouds at 25000 feet AGL
Weather: no significant weather observed at this time

METAR text: KHOU 250453Z AUTO 17008KT 9SM FEW012 SCT048 BKN250 20/18 A3007 RMK AO2 SLP188 T02000183
Conditions at: KHOU (HOUSTON/HOBBY , TX, US) observed 0453 UTC 25 March 2019
Temperature: 20.0°C (68°F)
Dewpoint: 18.3°C (65°F) [RH = 90%]
Pressure (altimeter): 30.07 inches Hg (1018.4 mb)
[Sea-level pressure: 1018.8 mb]
Winds: from the S (170 degrees) at 9 MPH (8 knots; 4.1 m/s)
Visibility: 9 miles (14 km)
Ceiling: 25000 feet AGL
Clouds: few clouds at 1200 feet AGL
scattered clouds at 4800 feet AGL
broken clouds at 25000 feet AGL
Weather: automated observation with no human augmentation;
there may or may not be significant weather present at this time

METAR text: KHOU 250353Z 17007KT 9SM FEW012 BKN050 BKN250 20/18 A3007 RMK AO2 SLP188 T02000183
Conditions at: KHOU (HOUSTON/HOBBY , TX, US) observed 0353 UTC 25 March 2019
Temperature: 20.0°C (68°F)
Dewpoint: 18.3°C (65°F) [RH = 90%]
Pressure (altimeter): 30.07 inches Hg (1018.4 mb)
[Sea-level pressure: 1018.8 mb]
Winds: from the S (170 degrees) at 8 MPH (7 knots; 3.6 m/s)
Visibility: 9 miles (14 km)
Ceiling: 5000 feet AGL
Clouds: few clouds at 1200 feet AGL
broken clouds at 5000 feet AGL
broken clouds at 25000 feet AGL
Weather: no significant weather observed at this time

METAR text: KHOU 250253Z 17007KT 9SM FEW015 SCT050 BKN250 20/18 A3006 RMK AO2 SLP184 T02000183 53007
Conditions at: KHOU (HOUSTON/HOBBY , TX, US) observed 0253 UTC 25 March 2019
Temperature: 20.0°C (68°F)
Dewpoint: 18.3°C (65°F) [RH = 90%]
Pressure (altimeter): 30.06 inches Hg (1018.0 mb)
[Sea-level pressure: 1018.4 mb]
Winds: from the S (170 degrees) at 8 MPH (7 knots; 3.6 m/s)
Visibility: 9 miles (14 km)
Ceiling: 25000 feet AGL
Clouds: few clouds at 1500 feet AGL
scattered clouds at 5000 feet AGL
broken clouds at 25000 feet AGL
Weather: no significant weather observed at this time

METAR text: KHOU 250153Z 17009KT 10SM FEW055 BKN250 21/18 A3004 RMK AO2 SLP177 T02060183
Conditions at: KHOU (HOUSTON/HOBBY , TX, US) observed 0153 UTC 25 March 2019
Temperature: 20.6°C (69°F)
Dewpoint: 18.3°C (65°F) [RH = 87%]
Pressure (altimeter): 30.04 inches Hg (1017.4 mb)
[Sea-level pressure: 1017.7 mb]
Winds: from the S (170 degrees) at 10 MPH (9 knots; 4.6 m/s)
Visibility: 10 or more miles (16+ km)
Ceiling: 25000 feet AGL
Clouds: few clouds at 5500 feet AGL
broken clouds at 25000 feet AGL
Weather: no significant weather observed at this time

METAR text: KHOU 250053Z 16008KT 10SM FEW015 BKN055 BKN250 22/18 A3003 RMK AO2 SLP174 T02170183
Conditions at: KHOU (HOUSTON/HOBBY , TX, US) observed 0053 UTC 25 March 2019
Temperature: 21.7°C (71°F)
Dewpoint: 18.3°C (65°F) [RH = 81%]
Pressure (altimeter): 30.03 inches Hg (1017.0 mb)
[Sea-level pressure: 1017.4 mb]
Winds: from the SSE (160 degrees) at 9 MPH (8 knots; 4.1 m/s)
Visibility: 10 or more miles (16+ km)
Ceiling: 5500 feet AGL
Clouds: few clouds at 1500 feet AGL
broken clouds at 5500 feet AGL
broken clouds at 25000 feet AGL
Weather: no significant weather observed at this time

Forecast for: KHOU (HOUSTON/HOBBY , TX, US)
Text: KHOU 261120Z 2612/2712 04012KT P6SM SKC
Forecast period: 1200 UTC 26 March 2019 to 0100 UTC 27 March 2019
Forecast type: FROM: standard forecast or significant change
Winds: from the NE (40 degrees) at 14 MPH (12 knots; 6.2 m/s)
Visibility: 6 or more miles 10+ km)
Clouds: clear skies
Weather: no significant weather forecast for this period
Text: FM270100 07004KT P6SM SCT250
Forecast period: 0100 to 1200 UTC 27 March 2019
Forecast type: FROM: standard forecast or significant change
Winds: from the ENE (70 degrees) at 5 MPH (4 knots; 2.1 m/s)
Visibility: 6 or more miles 10+ km)
Ceiling: at least 12,000 feet AGL
Clouds: scattered clouds at 25000 feet AGL
Weather: no significant weather forecast for this period